Etusivu
METAR-TAF:

METAR-TAF

Lentoasemat :

Shawano, Wisconsin, Yhdysvallat

Leveyspiiri: 44-47-14N, Pituuspiiri: 088-33-36W, korkeus merenpinnasta: 248 m

Tämänhetkinen sää

Tämä raportti tehtiin 18 minuuttia sitten, kello 10.15 UTC
Tuuli 5 kn luoteesta
Lämpötila 0°C
Kosteus 93%
Ilmanpaine 1008 hPa
Näkyvyys: 2.8 km
Hajanaisia pilviä 600 ft:n korkeudessa
Hajonneita pilviä 900 ft:n korkeudessa
Pilvistä 1700 ft:n korkeudessa
heikkoa lumisadetta

METAR: KEZS 181015Z AUTO 31005KT 1 3/4SM -SN SCT006 BKN009 OVC017 00/M01 A2978 RMK AO2 T10031012

Aika: 04:33 (10:33 UTC)


TAF: puuttuu

Säähavainnot ja -ennusteet yli 4000 lentoasemalta (METAR- ja TAF-raportit).

Käytössä olevat sääasemat on merkitty karttaan keltaisilla ja punaisilla pisteillä.

Aseta hiiri pisteen päälle nähdäksesi sääaseman nimen.

Klikkaa sitten nähdäksesi säähavainnot ja -ennusteet.

Kartan vaihtaminen: klikkaa mustalla rastilla varustettuja vihreitä pisteitä, niin voit zoomata sisään; viivalla varustettua vihreää pistettä, niin voit zoomata ulos tai vihreitä nuolia, niin pääset viereisille kartoille.


METAR-TAF: